Marion, MI (49665)

11:32 PM EDT on March 31, 2015 (GMT -0400)
Goose Lake | | Change Station
CLOSE
Current Station
Personal Weather Station
Location: Le Roy, MI
Elevation: 1270 ft
Nearby Weather Stations

Elev 1270 ft 44.05 °N, 85.35 °W | Updated 4 minutes ago

Rain
Rain
35.2 °F
Feels Like 35 °F
N
0.0
Wind Variable Wind from NW

Today
High -- | Low -- °F
--% Chance of Precip.
Yesterday
High -- | Low -- °F
Precip. -- in
7:24 AM 8:06 PM
Waxing Gibbous, 90% visible
Pressure 29.94 in
Visibility 10.0 miles
Clouds Overcast 4200 ft
Windchill 35 °F
Dew Point 32 °F
Humidity 87%
Rainfall 0.22 in
Snow Depth Not available.
UV 0 out of 12
Pollen .50 out of 12
Air Quality Not available.
Flu Activity Not available.
METAR KCAD 010314Z AUTO 05003KT 10SM OVC042 02/00 A2994 RMK AO2 T00200008

More Conditions Fewer Conditions

Pressure 29.94 in
Visibility 10.0 miles
Clouds Overcast 4200 ft
Windchill 35 °F
Dew Point 32 °F
Humidity 87%
Rainfall 0.22 in
Snow Depth Not available.
UV 0 out of 12
Pollen .50 out of 12
Air Quality Not available.
Flu Activity Not available.
METAR KCAD 010314Z AUTO 05003KT 10SM OVC042 02/00 A2994 RMK AO2 T00200008

More Conditions Fewer Conditions

10-Day Weather Forecast

Almanac

Astronomy

Mar. 31, 2015 Rise Set
Actual Time
Civil Twilight
Nautical Twilight
Astronomical Twilight
Moon
Length of Visible Light
Length of Day
Tomorrow will be .
, % of the Moon is Illuminated

Today's Extremes

State Highs State Lows

Community

WunderPhotos

Upload Photos

1,809,898 photos uploaded!

WunderBlogs® & News

Nearby

Air Quality

  Air Quality AQ Index Pollutant
Not available.

Snow Depth

Station Depth Elevation

Earthquake Activity

City Distance Mag. Time & Date
Minimum magnitude displayed is 2.5.

Coastal Water Temperatures

Place Temperature

Stations

Nearby Weather Stations

Station Location Temp. Windchill Dew Point Humidity Wind Precip. Elev Updated Type